Terminal Aerodrome Forecast
Issued by NWS

Home | Current Version | Previous Version | Graphics & Text | Print | Product List | Glossary On
Versions: 1 2 3 4 5 6 7 8 9 10 11 12 13 14 15 16 17 18 19 20 21 22 23 24 25 26 27 28
000
FTUS43 KOAX 260656 AAA
TAFCDR
TAF AMD
KCDR 260656Z 2607/2706 33005KT 5SM BR OVC009
     FM261500 02006KT P6SM BKN040
     FM261900 13009KT P6SM BKN080=

USA.gov is the U.S. government's official web portal to all federal, state and local government web resources and services.